createdAt,value
2018-05-23T00:00:46.567Z,91.00
2018-05-23T00:03:16.417Z,90.60
2018-05-23T00:05:45.657Z,90.50
2018-05-23T00:08:14.643Z,88.80
2018-05-23T00:10:43.746Z,88.60
2018-05-23T00:13:12.931Z,88.60
2018-05-23T00:15:42.028Z,87.70
2018-05-23T00:18:12.362Z,88.20
2018-05-23T00:20:41.756Z,87.50
2018-05-23T00:23:10.648Z,86.80
2018-05-23T00:25:39.550Z,86.10
2018-05-23T00:28:08.940Z,86.00
2018-05-23T00:30:37.983Z,89.20
2018-05-23T00:33:06.927Z,90.40
2018-05-23T00:35:36.076Z,90.70
2018-05-23T00:38:05.871Z,91.30
2018-05-23T00:40:35.171Z,91.30
2018-05-23T00:43:05.260Z,91.40
2018-05-23T00:45:34.407Z,91.30
2018-05-23T00:48:03.708Z,91.30
2018-05-23T00:50:33.182Z,91.50
2018-05-23T00:53:02.179Z,91.50
2018-05-23T00:55:35.521Z,91.70
2018-05-23T00:58:05.322Z,92.90
2018-05-23T01:00:35.267Z,94.80
2018-05-23T01:03:04.690Z,94.70
2018-05-23T01:05:33.803Z,96.60
2018-05-23T01:08:02.792Z,95.30
2018-05-23T01:10:32.271Z,95.60
2018-05-23T01:13:01.197Z,95.40
2018-05-23T01:15:30.187Z,95.10
2018-05-23T01:17:59.462Z,94.80
2018-05-23T01:20:30.365Z,94.70
2018-05-23T01:22:59.566Z,94.90
2018-05-23T01:25:28.592Z,94.90
2018-05-23T01:27:57.744Z,95.80
2018-05-23T01:30:27.116Z,96.30
2018-05-23T01:32:56.321Z,95.00
2018-05-23T01:35:25.410Z,93.90
2018-05-23T01:37:54.591Z,93.90
2018-05-23T01:40:23.452Z,94.30
2018-05-23T01:42:52.394Z,94.70
2018-05-23T01:45:21.594Z,94.50
2018-05-23T01:47:50.586Z,93.60
2018-05-23T01:50:19.577Z,92.90
2018-05-23T01:52:49.126Z,92.70
2018-05-23T01:55:18.038Z,92.00
2018-05-23T01:57:46.933Z,91.70
2018-05-23T02:00:15.967Z,92.10
2018-05-23T02:02:46.538Z,93.30
2018-05-23T02:05:16.507Z,93.60
2018-05-23T02:07:46.421Z,94.00
2018-05-23T02:10:15.597Z,93.90
2018-05-23T02:12:45.905Z,94.10
2018-05-23T02:15:15.005Z,93.80
2018-05-23T02:17:43.855Z,93.10
2018-05-23T02:20:16.577Z,92.00
2018-05-23T02:22:47.350Z,91.30
2018-05-23T02:25:17.345Z,91.00
2018-05-23T02:27:48.470Z,90.60
2018-05-23T02:30:17.595Z,90.60
2018-05-23T02:32:47.257Z,90.60
2018-05-23T02:35:16.504Z,90.60
2018-05-23T02:37:45.626Z,90.50
2018-05-23T02:40:14.756Z,87.40
2018-05-23T02:42:43.827Z,81.30
2018-05-23T02:45:12.713Z,80.30
2018-05-23T02:47:41.736Z,76.80
2018-05-23T02:50:11.910Z,67.40
2018-05-23T02:52:41.884Z,64.30
2018-05-23T02:55:10.975Z,64.20
2018-05-23T02:57:40.318Z,64.20
2018-05-23T03:00:09.319Z,60.10
2018-05-23T03:02:39.314Z,66.60
2018-05-23T03:05:25.610Z,64.50
2018-05-23T03:07:55.810Z,61.80
2018-05-23T03:10:25.262Z,61.80
2018-05-23T03:12:55.264Z,55.80
2018-05-23T03:15:24.477Z,55.70
2018-05-23T03:17:54.221Z,53.90
2018-05-23T03:20:23.215Z,53.90
2018-05-23T03:22:53.515Z,54.20
2018-05-23T03:25:22.819Z,54.30
2018-05-23T03:27:52.789Z,50.80
2018-05-23T03:30:22.470Z,50.70
2018-05-23T03:32:51.717Z,50.70
2018-05-23T03:35:20.775Z,50.90
2018-05-23T03:37:49.829Z,48.90
2018-05-23T03:40:19.102Z,47.10
2018-05-23T03:42:48.314Z,47.00
2018-05-23T03:45:17.309Z,46.90
2018-05-23T03:47:46.669Z,46.70
2018-05-23T03:50:15.811Z,47.10
2018-05-23T03:52:45.009Z,46.60
2018-05-23T03:55:14.474Z,46.70
2018-05-23T03:57:43.529Z,46.80
2018-05-23T04:00:24.457Z,47.30
2018-05-23T04:03:05.741Z,48.20
2018-05-23T04:05:46.642Z,48.20
2018-05-23T04:08:16.297Z,46.20
2018-05-23T04:10:46.010Z,45.30
2018-05-23T04:13:15.222Z,45.30
2018-05-23T04:15:44.210Z,46.30
2018-05-23T04:18:13.349Z,45.90
2018-05-23T04:20:43.394Z,46.20
2018-05-23T04:23:14.530Z,47.40
2018-05-23T04:25:43.598Z,47.40
2018-05-23T04:28:12.570Z,46.90
2018-05-23T04:30:41.553Z,46.00
2018-05-23T04:33:10.799Z,44.70
2018-05-23T04:35:40.630Z,44.80
2018-05-23T04:38:09.559Z,44.80
2018-05-23T04:40:39.609Z,42.60
2018-05-23T04:43:08.420Z,42.60
2018-05-23T04:45:38.246Z,41.50
2018-05-23T04:48:07.347Z,41.50
2018-05-23T04:50:36.343Z,40.40
2018-05-23T04:53:06.042Z,36.50
2018-05-23T04:55:36.078Z,36.40
2018-05-23T04:58:06.153Z,35.40
2018-05-23T05:00:35.390Z,35.30
2018-05-23T05:03:04.591Z,34.20
2018-05-23T05:05:33.621Z,33.60
2018-05-23T05:08:02.701Z,33.70
2018-05-23T05:10:32.090Z,34.70
2018-05-23T05:13:01.858Z,34.40
2018-05-23T05:15:30.958Z,34.30
2018-05-23T05:18:00.124Z,35.60
2018-05-23T05:20:29.322Z,34.70
2018-05-23T05:22:58.399Z,32.90
2018-05-23T05:25:28.713Z,32.10
2018-05-23T05:27:57.744Z,31.80
2018-05-23T05:30:26.707Z,32.40
2018-05-23T05:32:56.113Z,32.60
2018-05-23T05:35:25.110Z,32.30
2018-05-23T05:37:54.101Z,31.80
2018-05-23T05:40:23.498Z,31.40
2018-05-23T05:42:52.482Z,32.20
2018-05-23T05:45:21.379Z,32.00
2018-05-23T05:47:50.526Z,32.30
2018-05-23T05:50:19.463Z,32.50
2018-05-23T05:52:48.437Z,32.20
2018-05-23T05:55:17.633Z,31.90
2018-05-23T05:57:46.502Z,31.50
2018-05-23T06:00:15.498Z,31.20
2018-05-23T06:02:45.582Z,30.20
2018-05-23T06:05:14.573Z,30.20
2018-05-23T06:07:43.573Z,29.70
2018-05-23T06:10:13.750Z,29.40
2018-05-23T06:12:42.887Z,29.30
2018-05-23T06:15:11.982Z,29.10
2018-05-23T06:17:41.525Z,29.90
2018-05-23T06:20:10.599Z,29.40
2018-05-23T06:22:39.626Z,29.60
2018-05-23T06:25:08.768Z,29.80
2018-05-23T06:27:38.731Z,29.70
2018-05-23T06:30:07.722Z,30.30
2018-05-23T06:32:36.996Z,29.70
2018-05-23T06:35:05.993Z,29.90
2018-05-23T06:37:34.994Z,30.40
2018-05-23T06:40:05.170Z,30.30
2018-05-23T06:42:34.953Z,30.00
2018-05-23T06:45:05.050Z,29.90
2018-05-23T06:47:34.142Z,30.70
2018-05-23T06:50:03.082Z,31.60
2018-05-23T06:52:32.342Z,31.80
2018-05-23T06:55:01.334Z,30.70
2018-05-23T06:57:31.302Z,30.00
2018-05-23T07:00:01.210Z,30.00
2018-05-23T07:02:31.107Z,28.80
2018-05-23T07:05:00.202Z,28.80
2018-05-23T07:07:29.687Z,29.00
2018-05-23T07:09:58.716Z,28.50
2018-05-23T07:12:27.871Z,28.30
2018-05-23T07:14:57.111Z,28.80
2018-05-23T07:17:26.058Z,27.50
2018-05-23T07:19:54.999Z,29.80
2018-05-23T07:22:24.319Z,34.20
2018-05-23T07:24:53.546Z,33.80
2018-05-23T07:27:23.975Z,39.10
2018-05-23T07:29:54.152Z,39.10
2018-05-23T07:32:23.096Z,40.50
2018-05-23T07:34:52.039Z,41.90
2018-05-23T07:37:21.171Z,41.60
2018-05-23T07:39:50.082Z,42.60
2018-05-23T07:42:19.014Z,42.50
2018-05-23T07:44:48.238Z,42.90
2018-05-23T07:47:17.166Z,42.50
2018-05-23T07:49:46.097Z,42.90
2018-05-23T07:52:15.517Z,43.20
2018-05-23T07:54:44.655Z,44.40
2018-05-23T07:57:13.768Z,45.20
2018-05-23T07:59:43.819Z,43.70
2018-05-23T08:02:12.768Z,43.70
2018-05-23T08:04:41.963Z,44.20
2018-05-23T08:07:12.010Z,46.20
2018-05-23T08:09:41.877Z,47.00
2018-05-23T08:12:11.014Z,46.90
2018-05-23T08:14:40.422Z,47.10
2018-05-23T08:17:09.413Z,48.30
2018-05-23T08:19:39.311Z,47.20
2018-05-23T08:22:08.969Z,47.20
2018-05-23T08:24:38.039Z,47.20
2018-05-23T08:27:07.134Z,48.40
2018-05-23T08:29:37.283Z,48.90
2018-05-23T08:32:07.635Z,48.90
2018-05-23T08:34:36.769Z,49.10
2018-05-23T08:37:07.086Z,49.50
2018-05-23T08:39:36.258Z,50.10
2018-05-23T08:42:05.458Z,50.10
2018-05-23T08:44:35.386Z,47.90
2018-05-23T08:47:05.227Z,47.20
2018-05-23T08:49:34.366Z,47.20
2018-05-23T08:52:05.002Z,44.90
2018-05-23T08:54:34.058Z,44.90
2018-05-23T08:57:03.171Z,44.60
2018-05-23T08:59:33.474Z,43.20
2018-05-23T09:02:02.506Z,43.20
2018-05-23T09:04:31.493Z,43.60
2018-05-23T09:07:00.874Z,43.50
2018-05-23T09:09:29.990Z,43.70
2018-05-23T09:11:59.002Z,43.20
2018-05-23T09:14:28.438Z,43.20
2018-05-23T09:16:57.350Z,42.70
2018-05-23T09:19:26.247Z,44.30
2018-05-23T09:21:55.328Z,43.20
2018-05-23T09:24:26.421Z,43.60
2018-05-23T09:26:55.721Z,43.60
2018-05-23T09:29:24.822Z,43.40
2018-05-23T09:31:53.993Z,43.70
2018-05-23T09:34:23.579Z,43.40
2018-05-23T09:36:52.478Z,44.80
2018-05-23T09:39:21.370Z,43.60
2018-05-23T09:41:50.548Z,42.70
2018-05-23T09:44:20.394Z,43.10
2018-05-23T09:46:50.041Z,45.80
2018-05-23T09:49:19.446Z,45.40
2018-05-23T09:51:48.681Z,46.10
2018-05-23T09:54:18.431Z,46.70
2018-05-23T09:56:48.570Z,46.90
2018-05-23T09:59:17.670Z,46.80
2018-05-23T10:01:46.738Z,47.20
2018-05-23T10:04:15.943Z,46.80
2018-05-23T10:06:45.706Z,45.80
2018-05-23T10:09:15.015Z,45.70
2018-05-23T10:11:44.461Z,46.30
2018-05-23T10:14:13.463Z,46.00
2018-05-23T10:16:43.457Z,45.50
2018-05-23T10:19:12.907Z,45.50
2018-05-23T10:21:41.893Z,45.50
2018-05-23T10:24:10.994Z,45.50
2018-05-23T10:26:40.401Z,45.60
2018-05-23T10:29:09.402Z,45.40
2018-05-23T10:31:38.390Z,44.30
2018-05-23T10:34:07.527Z,45.20
2018-05-23T10:36:37.605Z,44.90
2018-05-23T10:39:07.767Z,44.20
2018-05-23T10:41:37.344Z,43.10
2018-05-23T10:44:08.067Z,44.00
2018-05-23T10:46:37.429Z,43.90
2018-05-23T10:49:06.374Z,44.20
2018-05-23T10:51:35.381Z,43.90
2018-05-23T10:54:04.810Z,43.40
2018-05-23T10:56:33.617Z,43.10
2018-05-23T10:59:02.462Z,42.50
2018-05-23T11:01:31.777Z,42.00
2018-05-23T11:04:00.801Z,41.60
2018-05-23T11:06:33.485Z,40.20
2018-05-23T11:09:02.655Z,40.10
2018-05-23T11:11:31.900Z,40.50
2018-05-23T11:14:01.267Z,39.70
2018-05-23T11:16:30.277Z,41.00
2018-05-23T11:18:59.989Z,41.50
2018-05-23T11:21:29.487Z,41.50
2018-05-23T11:23:58.515Z,42.50
2018-05-23T11:26:27.630Z,43.20
2018-05-23T11:28:56.842Z,42.30
2018-05-23T11:31:25.638Z,43.40
2018-05-23T11:33:54.701Z,43.60
2018-05-23T11:36:24.100Z,43.10
2018-05-23T11:38:55.463Z,43.40
2018-05-23T11:41:24.854Z,43.40
2018-05-23T11:43:53.851Z,44.50
2018-05-23T11:46:23.871Z,44.00
2018-05-23T11:48:53.710Z,44.00
2018-05-23T11:51:22.674Z,44.30
2018-05-23T11:53:51.666Z,44.30
2018-05-23T11:56:21.007Z,49.40
2018-05-23T11:58:49.893Z,52.70
2018-05-23T12:01:18.893Z,52.20
2018-05-23T12:03:48.017Z,54.00
2018-05-23T12:06:16.891Z,55.30
2018-05-23T12:08:45.989Z,56.30
2018-05-23T12:11:15.373Z,56.90
2018-05-23T12:13:44.326Z,55.50
2018-05-23T12:16:13.262Z,56.60
2018-05-23T12:18:42.395Z,57.40
2018-05-23T12:21:11.665Z,57.80
2018-05-23T12:23:40.886Z,57.80
2018-05-23T12:26:10.588Z,58.60
2018-05-23T12:28:39.634Z,59.50
2018-05-23T12:31:09.650Z,58.90
2018-05-23T12:33:38.989Z,58.90
2018-05-23T12:36:08.055Z,58.40
2018-05-23T12:38:37.150Z,58.70
2018-05-23T12:41:06.836Z,59.20
2018-05-23T12:43:36.059Z,60.10
2018-05-23T12:46:05.219Z,60.20
2018-05-23T12:48:34.907Z,60.20
2018-05-23T12:51:03.861Z,62.00
2018-05-23T12:53:32.855Z,64.90
2018-05-23T12:56:02.089Z,65.10
2018-05-23T12:58:31.081Z,68.70
2018-05-23T13:01:00.041Z,71.30
2018-05-23T13:03:29.364Z,72.10
2018-05-23T13:05:58.386Z,71.30
2018-05-23T13:08:27.343Z,69.80
2018-05-23T13:10:57.353Z,80.20
2018-05-23T13:13:26.374Z,80.20
2018-05-23T13:15:55.469Z,79.30
2018-05-23T13:18:24.750Z,81.00
2018-05-23T13:20:54.645Z,78.50
2018-05-23T13:23:23.818Z,78.50
2018-05-23T13:25:53.112Z,77.30
2018-05-23T13:28:22.168Z,75.10
2018-05-23T13:30:51.854Z,77.10
2018-05-23T13:33:21.139Z,77.00
2018-05-23T13:35:55.226Z,79.30
2018-05-23T13:38:24.491Z,82.50
2018-05-23T13:40:53.590Z,84.00
2018-05-23T13:43:25.045Z,87.60
2018-05-23T13:45:54.190Z,87.60
2018-05-23T13:48:23.326Z,87.40
2018-05-23T13:50:52.754Z,90.10
2018-05-23T13:53:22.815Z,92.70
2018-05-23T13:55:51.805Z,92.70
2018-05-23T13:58:21.079Z,93.70
2018-05-23T14:00:50.102Z,94.30
2018-05-23T14:03:19.198Z,94.00
2018-05-23T14:05:50.767Z,93.50
2018-05-23T14:08:19.722Z,93.50
2018-05-23T14:10:48.617Z,93.50
2018-05-23T14:13:17.751Z,94.40
2018-05-23T14:15:47.478Z,95.30
2018-05-23T14:18:16.627Z,96.50
2018-05-23T14:20:46.039Z,96.40
2018-05-23T14:23:15.090Z,96.90
2018-05-23T14:25:46.039Z,99.90
2018-05-23T14:28:15.337Z,99.90
2018-05-23T14:30:45.159Z,99.90
2018-05-23T14:33:14.247Z,99.90
2018-05-23T14:35:44.461Z,99.90
2018-05-23T14:38:13.676Z,99.90
2018-05-23T14:40:43.367Z,99.90
2018-05-23T14:43:13.392Z,99.90
2018-05-23T14:45:44.887Z,99.90
2018-05-23T14:48:14.115Z,99.90
2018-05-23T14:50:43.867Z,99.90
2018-05-23T14:53:13.834Z,99.90
2018-05-23T14:55:42.834Z,99.90
2018-05-23T14:58:11.967Z,99.90
2018-05-23T15:00:49.453Z,99.90
2018-05-23T15:03:31.854Z,99.90
2018-05-23T15:06:01.450Z,99.90
2018-05-23T15:08:39.489Z,99.90
2018-05-23T15:11:09.945Z,99.90
2018-05-23T15:13:39.350Z,99.90
2018-05-23T15:16:08.329Z,99.90
2018-05-23T15:18:37.722Z,99.90
2018-05-23T15:21:07.634Z,99.90
2018-05-23T15:23:36.968Z,99.90
2018-05-23T15:26:06.276Z,99.90
2018-05-23T15:28:35.333Z,99.90
2018-05-23T15:31:05.101Z,99.90
2018-05-23T15:33:34.379Z,99.90
2018-05-23T15:36:03.370Z,99.90
2018-05-23T15:38:32.549Z,99.90
2018-05-23T15:41:02.646Z,99.90
2018-05-23T15:43:32.483Z,99.90
2018-05-23T15:46:03.470Z,99.90
2018-05-23T15:48:32.452Z,99.90
2018-05-23T15:51:01.513Z,99.90
2018-05-23T15:53:31.659Z,99.90
2018-05-23T15:56:00.660Z,99.90
2018-05-23T15:58:29.752Z,99.90
2018-05-23T16:00:59.044Z,99.90
2018-05-23T16:03:28.058Z,99.90
2018-05-23T16:05:57.123Z,99.90
2018-05-23T16:08:27.230Z,99.90
2018-05-23T16:10:56.430Z,99.90
2018-05-23T16:13:25.422Z,99.90
2018-05-23T16:15:54.734Z,99.90
2018-05-23T16:18:24.710Z,99.90
2018-05-23T16:20:53.943Z,99.90
2018-05-23T16:23:23.357Z,99.90
2018-05-23T16:25:53.535Z,99.90
2018-05-23T16:28:23.023Z,99.90
2018-05-23T16:30:52.086Z,99.90
2018-05-23T16:33:22.050Z,99.90
2018-05-23T16:35:51.322Z,99.90
2018-05-23T16:38:20.413Z,99.90
2018-05-23T16:40:49.413Z,99.90
2018-05-23T16:43:18.794Z,99.90
2018-05-23T16:45:47.813Z,99.90
2018-05-23T16:48:17.546Z,99.90
2018-05-23T16:50:46.912Z,99.90
2018-05-23T16:53:16.031Z,99.90
2018-05-23T16:55:45.216Z,99.90
2018-05-23T16:58:14.972Z,99.90
2018-05-23T17:00:44.190Z,99.90
2018-05-23T17:03:14.025Z,99.90
2018-05-23T17:05:44.251Z,99.90
2018-05-23T17:08:13.254Z,99.90
2018-05-23T17:10:42.267Z,99.90
2018-05-23T17:13:11.538Z,99.90
2018-05-23T17:15:41.519Z,99.90
2018-05-23T17:18:11.066Z,99.90
2018-05-23T17:20:41.177Z,99.90
2018-05-23T17:23:10.014Z,99.90
2018-05-23T17:25:39.013Z,99.90
2018-05-23T17:28:08.570Z,99.90
2018-05-23T17:30:37.770Z,99.90
2018-05-23T17:33:07.528Z,99.90
2018-05-23T17:35:36.668Z,99.90
2018-05-23T17:38:06.436Z,99.90
2018-05-23T17:40:35.526Z,99.90
2018-05-23T17:43:04.806Z,99.90
2018-05-23T17:45:34.776Z,99.90
2018-05-23T17:48:03.584Z,99.90
2018-05-23T17:50:33.861Z,99.90
2018-05-23T17:53:02.926Z,99.90
2018-05-23T17:55:31.917Z,99.90
2018-05-23T17:58:01.291Z,99.90
2018-05-23T18:00:30.210Z,99.90
2018-05-23T18:02:59.210Z,99.90
2018-05-23T18:05:29.254Z,99.90
2018-05-23T18:07:58.321Z,99.90
2018-05-23T18:10:27.246Z,99.90
2018-05-23T18:12:56.589Z,99.90
2018-05-23T18:15:25.698Z,99.90
2018-05-23T18:17:55.022Z,99.90
2018-05-23T18:20:25.014Z,99.90
2018-05-23T18:22:53.931Z,99.90
2018-05-23T18:25:23.808Z,99.90
2018-05-23T18:27:53.594Z,99.90
2018-05-23T18:30:22.554Z,99.90
2018-05-23T18:32:51.551Z,99.90
2018-05-23T18:35:21.672Z,99.90
2018-05-23T18:37:51.518Z,99.90
2018-05-23T18:40:20.517Z,99.90
2018-05-23T18:55:51.417Z,99.90
2018-05-23T18:58:20.332Z,99.90
2018-05-23T19:00:49.426Z,99.90
2018-05-23T19:03:19.678Z,99.90
2018-05-23T19:05:48.629Z,99.90
2018-05-23T19:08:17.842Z,99.90
2018-05-23T19:10:47.322Z,99.90
2018-05-23T19:13:16.422Z,99.90
2018-05-23T19:15:45.310Z,99.90
2018-05-23T19:18:14.418Z,99.90
2018-05-23T19:20:44.202Z,99.90
2018-05-23T19:23:13.274Z,99.90
2018-05-23T19:25:42.613Z,99.90
2018-05-23T19:28:11.505Z,99.90
2018-05-23T19:30:40.504Z,99.90
2018-05-23T19:33:10.117Z,99.90
2018-05-23T19:35:39.989Z,99.90
2018-05-23T19:38:10.018Z,99.90
2018-05-23T19:40:39.048Z,99.90
2018-05-23T19:43:07.938Z,99.90
2018-05-23T19:45:37.031Z,99.90
2018-05-23T19:48:06.026Z,99.90
2018-05-23T19:50:35.027Z,99.90
2018-05-23T19:53:04.431Z,99.90
2018-05-23T19:55:34.241Z,99.90
2018-05-23T19:58:04.993Z,99.90
2018-05-23T20:00:34.631Z,99.90
2018-05-23T20:03:03.514Z,99.90
2018-05-23T20:05:32.882Z,99.90
2018-05-23T20:08:01.821Z,99.90
2018-05-23T20:10:31.848Z,99.90
2018-05-23T20:13:01.198Z,99.90
2018-05-23T20:15:30.794Z,99.90
2018-05-23T20:17:59.693Z,99.90
2018-05-23T20:20:28.656Z,99.90
2018-05-23T20:22:58.530Z,99.90
2018-05-23T20:25:27.494Z,99.90
2018-05-23T20:27:56.694Z,99.90
2018-05-23T20:30:27.226Z,99.90
2018-05-23T20:32:56.171Z,99.90
2018-05-23T20:35:25.572Z,99.90
2018-05-23T20:37:54.726Z,99.90
2018-05-23T20:40:23.538Z,99.90
2018-05-23T20:42:52.714Z,99.90
2018-05-23T20:45:22.685Z,99.90
2018-05-23T20:47:51.678Z,99.90
2018-05-23T20:50:21.618Z,99.90
2018-05-23T20:52:50.434Z,99.90
2018-05-23T20:55:19.321Z,99.90
2018-05-23T20:57:48.653Z,99.90
2018-05-23T21:00:17.958Z,99.90
2018-05-23T21:02:47.694Z,99.90
2018-05-23T21:05:17.580Z,99.90
2018-05-23T21:07:46.342Z,99.90
2018-05-23T21:10:15.238Z,99.90
2018-05-23T21:12:44.367Z,99.90
2018-05-23T21:15:13.233Z,99.90
2018-05-23T21:17:42.142Z,99.90
2018-05-23T21:20:11.322Z,99.90
2018-05-23T21:22:40.211Z,99.90
2018-05-23T21:25:09.194Z,99.90
2018-05-23T21:27:38.294Z,99.90
2018-05-23T21:30:07.323Z,99.90
2018-05-23T21:32:36.735Z,99.90
2018-05-23T21:35:05.808Z,99.90
2018-05-23T21:37:34.694Z,99.90
2018-05-23T21:40:03.620Z,99.90
2018-05-23T21:42:33.258Z,99.90
2018-05-23T21:45:02.016Z,99.90
2018-05-23T21:47:31.849Z,99.90
2018-05-23T21:50:01.699Z,99.90
2018-05-23T21:52:30.638Z,99.90
2018-05-23T21:54:59.499Z,99.90
2018-05-23T21:57:28.654Z,99.90
2018-05-23T21:59:58.353Z,99.90
2018-05-23T22:02:29.061Z,99.90
2018-05-23T22:04:58.805Z,99.90
2018-05-23T22:07:27.778Z,99.90
2018-05-23T22:09:57.556Z,99.90
2018-05-23T22:12:26.672Z,99.90
2018-05-23T22:14:56.193Z,99.90
2018-05-23T22:17:24.972Z,99.90
2018-05-23T22:19:54.673Z,99.90
2018-05-23T22:22:23.427Z,99.90
2018-05-23T22:24:52.269Z,99.90
2018-05-23T22:27:21.261Z,99.90
2018-05-23T22:29:51.005Z,99.90
2018-05-23T22:32:20.548Z,99.90
2018-05-23T22:34:49.585Z,99.90
2018-05-23T22:37:18.646Z,99.90
2018-05-23T22:39:47.557Z,99.90
2018-05-23T22:42:16.642Z,99.90
2018-05-23T22:44:45.558Z,99.90
2018-05-23T22:47:14.515Z,99.90
2018-05-23T22:49:43.614Z,99.90
2018-05-23T22:52:12.501Z,99.90
2018-05-23T22:54:41.603Z,99.90
2018-05-23T22:57:11.034Z,99.90
2018-05-23T22:59:40.497Z,99.90
2018-05-23T23:02:09.348Z,99.90
2018-05-23T23:04:39.733Z,99.90
2018-05-23T23:07:08.661Z,99.90
2018-05-23T23:09:37.726Z,99.90
2018-05-23T23:12:06.822Z,99.90
2018-05-23T23:14:36.798Z,99.90
2018-05-23T23:17:05.890Z,99.90
2018-05-23T23:19:35.026Z,99.90
2018-05-23T23:22:04.154Z,99.90
2018-05-23T23:24:33.250Z,99.90
2018-05-23T23:27:02.528Z,99.90
2018-05-23T23:29:32.745Z,99.90
2018-05-23T23:32:01.883Z,99.90
2018-05-23T23:34:31.156Z,99.90
2018-05-23T23:37:00.248Z,99.90
2018-05-23T23:39:30.222Z,99.90
2018-05-23T23:42:00.041Z,99.90
2018-05-23T23:44:29.069Z,99.90
2018-05-23T23:46:57.971Z,99.90
2018-05-23T23:49:28.497Z,99.90
2018-05-23T23:51:57.490Z,99.90
2018-05-23T23:54:26.385Z,99.90
2018-05-23T23:56:55.586Z,99.90
2018-05-23T23:59:25.450Z,99.90
